Time;durP1;ratioP1;P1;durP2;ratioP2;P2;SDS_P1;SDS_P2;PMS_P1;PMS_P2;Temp;Humidity;BMP_temperature;BMP_pressure;BME280_temperature;BME280_humidity;BME280_pressure;Samples;Min_cycle;Max_cycle;Signal;HPM_P1;HPM_P2
2022/12/09 00:00:10;;;;;;;9.55;6.78;;;-0.20;99.90;;;;;;456708;259;27453;-65
2022/12/09 00:02:10;;;;;;;8.77;6.50;;;-0.20;99.90;;;;;;456631;258;27449;-65
2022/12/09 00:04:12;;;;;;;10.88;7.03;;;-0.30;99.90;;;;;;456706;255;27997;-68
2022/12/09 00:06:13;;;;;;;7.90;6.37;;;-0.30;99.90;;;;;;456641;258;27961;-65
2022/12/09 00:08:14;;;;;;;9.95;6.47;;;-0.30;99.90;;;;;;462215;256;27444;-65
2022/12/09 00:10:15;;;;;;;10.70;6.87;;;-0.30;99.90;;;;;;472187;250;27519;-64
2022/12/09 00:12:17;;;;;;;9.75;6.50;;;-0.40;99.90;;;;;;472159;250;27451;-64
2022/12/09 00:14:18;;;;;;;10.43;6.68;;;-0.30;99.90;;;;;;472179;250;27558;-67
2022/12/09 00:16:19;;;;;;;8.82;6.25;;;-0.30;99.90;;;;;;472172;251;27574;-64
2022/12/09 00:18:20;;;;;;;9.32;5.95;;;-0.30;99.90;;;;;;472145;250;27649;-65
2022/12/09 00:20:22;;;;;;;8.05;5.72;;;-0.40;99.90;;;;;;472176;250;27463;-65
2022/12/09 00:22:23;;;;;;;8.43;6.05;;;-0.40;99.90;;;;;;472090;251;27962;-65
2022/12/09 00:24:24;;;;;;;9.20;6.35;;;-0.40;99.90;;;;;;472180;250;28129;-67
2022/12/09 00:26:26;;;;;;;6.25;5.40;;;-0.50;99.90;;;;;;472137;250;27979;-64
2022/12/09 00:28:27;;;;;;;9.00;6.10;;;-0.50;99.90;;;;;;472127;250;27649;-64
2022/12/09 00:30:28;;;;;;;7.55;4.97;;;-0.50;99.90;;;;;;472177;250;27437;-64
2022/12/09 00:32:29;;;;;;;9.73;5.62;;;-0.60;99.90;;;;;;472150;251;28103;-64
2022/12/09 00:34:31;;;;;;;7.85;5.55;;;-0.70;99.90;;;;;;472194;250;27926;-67
2022/12/09 00:36:32;;;;;;;8.00;5.57;;;-0.80;99.90;;;;;;472178;251;27677;-65
2022/12/09 00:38:33;;;;;;;8.15;5.00;;;-0.80;99.90;;;;;;472136;250;27462;-64
2022/12/09 00:40:34;;;;;;;6.80;5.37;;;-0.80;99.90;;;;;;472187;251;27512;-64
2022/12/09 00:42:36;;;;;;;6.93;5.50;;;-0.80;99.90;;;;;;472143;252;27499;-64
2022/12/09 00:44:37;;;;;;;10.43;6.00;;;-0.80;99.90;;;;;;472175;250;27428;-66
2022/12/09 00:46:38;;;;;;;8.02;5.45;;;-0.80;99.90;;;;;;472166;250;27627;-64
2022/12/09 00:48:39;;;;;;;8.23;5.87;;;-0.80;99.90;;;;;;472176;250;27571;-65
2022/12/09 00:50:41;;;;;;;7.85;5.65;;;-0.70;99.90;;;;;;472190;250;28825;-65
2022/12/09 00:52:42;;;;;;;9.70;6.18;;;-0.60;99.90;;;;;;472192;250;27952;-65
2022/12/09 00:54:43;;;;;;;8.07;5.82;;;-0.60;99.90;;;;;;472135;251;28082;-67
2022/12/09 00:56:44;;;;;;;8.27;5.53;;;-0.60;99.90;;;;;;472202;249;27574;-65
2022/12/09 00:58:46;;;;;;;7.72;5.00;;;-0.70;99.90;;;;;;472577;249;27627;-64
2022/12/09 01:00:47;;;;;;;7.78;5.70;;;-0.60;99.90;;;;;;472479;249;27547;-65
2022/12/09 01:02:48;;;;;;;8.75;6.37;;;-0.70;99.90;;;;;;472426;249;27506;-64
2022/12/09 01:04:50;;;;;;;9.23;5.87;;;-0.70;99.90;;;;;;472607;249;27550;-66
2022/12/09 01:06:51;;;;;;;9.32;6.47;;;-0.70;99.90;;;;;;472569;249;27500;-64
2022/12/09 01:08:52;;;;;;;7.95;5.45;;;-0.70;99.90;;;;;;472623;249;27534;-67
2022/12/09 01:10:53;;;;;;;6.70;5.03;;;-0.70;99.90;;;;;;472632;249;28735;-64
2022/12/09 01:12:54;;;;;;;9.20;5.47;;;-0.70;99.90;;;;;;472644;249;27946;-65
2022/12/09 01:14:56;;;;;;;8.60;5.78;;;-0.70;99.90;;;;;;472612;249;28003;-65
2022/12/09 01:16:57;;;;;;;9.25;6.10;;;-0.70;99.90;;;;;;472618;249;27494;-65
2022/12/09 01:18:58;;;;;;;8.85;5.75;;;-0.80;99.90;;;;;;472627;249;27660;-65
2022/12/09 01:20:59;;;;;;;9.82;5.80;;;-0.80;99.90;;;;;;472617;249;27515;-65
2022/12/09 01:23:01;;;;;;;7.20;5.20;;;-0.80;99.90;;;;;;472639;249;27487;-65
2022/12/09 01:25:02;;;;;;;10.43;6.00;;;-0.80;99.90;;;;;;472525;247;27647;-66
2022/12/09 01:27:03;;;;;;;8.15;6.12;;;-0.80;99.90;;;;;;472246;249;27490;-65
2022/12/09 01:29:04;;;;;;;11.12;6.62;;;-0.90;99.90;;;;;;472349;249;27624;-64
2022/12/09 01:31:06;;;;;;;9.32;5.97;;;-0.90;99.90;;;;;;472199;249;28728;-64
2022/12/09 01:33:07;;;;;;;9.05;5.50;;;-0.90;99.90;;;;;;472410;249;28048;-65
2022/12/09 01:35:08;;;;;;;7.68;5.47;;;-0.90;99.90;;;;;;472593;249;27685;-66
2022/12/09 01:37:09;;;;;;;8.00;5.60;;;-0.90;99.90;;;;;;472620;249;27488;-65
2022/12/09 01:39:11;;;;;;;7.40;5.47;;;-1.00;99.90;;;;;;472624;249;27516;-65
2022/12/09 01:41:12;;;;;;;10.13;5.70;;;-1.00;99.90;;;;;;472581;251;27536;-66
2022/12/09 01:43:13;;;;;;;8.75;5.30;;;-1.00;99.90;;;;;;472645;249;27464;-64
2022/12/09 01:45:14;;;;;;;9.82;6.45;;;-1.00;99.90;;;;;;472635;249;27533;-66
2022/12/09 01:47:16;;;;;;;8.35;6.00;;;-1.10;99.90;;;;;;472575;249;27389;-64
2022/12/09 01:49:17;;;;;;;6.82;5.12;;;-1.10;99.90;;;;;;472618;249;28305;-66
2022/12/09 01:51:18;;;;;;;6.82;4.90;;;-1.10;99.90;;;;;;472613;249;28801;-64
2022/12/09 01:53:19;;;;;;;7.80;5.90;;;-1.00;99.90;;;;;;472627;249;27863;-65
2022/12/09 01:55:21;;;;;;;7.72;5.90;;;-1.00;99.90;;;;;;472475;247;27501;-66
2022/12/09 01:57:22;;;;;;;7.65;5.45;;;-1.00;99.90;;;;;;472268;249;27537;-64
2022/12/09 01:59:23;;;;;;;10.07;5.43;;;-0.90;99.90;;;;;;472579;249;27510;-64
2022/12/09 02:01:24;;;;;;;8.38;5.72;;;-1.00;99.90;;;;;;472190;249;27442;-64
2022/12/09 02:03:26;;;;;;;6.85;5.12;;;-1.00;99.90;;;;;;472208;251;27425;-65
2022/12/09 02:05:27;;;;;;;6.95;5.20;;;-1.00;99.90;;;;;;472401;249;27404;-65
2022/12/09 02:07:28;;;;;;;6.97;5.62;;;-1.00;99.90;;;;;;471823;249;27405;-64
2022/12/09 02:09:30;;;;;;;9.27;5.90;;;-1.30;99.90;;;;;;480598;247;28992;-65
2022/12/09 02:11:31;;;;;;;9.52;6.78;;;-1.40;99.90;;;;;;480522;246;27183;-68
2022/12/09 02:13:32;;;;;;;8.05;5.70;;;-1.40;99.90;;;;;;480595;246;27203;-64
2022/12/09 02:15:33;;;;;;;10.95;6.05;;;-1.40;99.90;;;;;;480576;246;27317;-66
2022/12/09 02:17:35;;;;;;;10.23;6.70;;;-1.30;99.90;;;;;;480583;246;27095;-64
2022/12/09 02:19:36;;;;;;;8.60;6.43;;;-1.30;99.90;;;;;;480580;246;27292;-65
2022/12/09 02:21:37;;;;;;;10.27;6.00;;;-1.30;99.90;;;;;;480550;246;27690;-68
2022/12/09 02:23:39;;;;;;;8.55;6.20;;;-1.30;99.90;;;;;;480571;246;27269;-65
2022/12/09 02:25:40;;;;;;;9.48;6.12;;;-1.30;99.90;;;;;;481394;243;27764;-64
2022/12/09 02:27:41;;;;;;;8.95;6.37;;;-1.30;99.90;;;;;;480219;247;28510;-64
2022/12/09 02:29:42;;;;;;;9.57;6.45;;;-1.30;99.90;;;;;;480274;247;27784;-64
2022/12/09 02:31:44;;;;;;;10.60;6.93;;;-1.30;99.90;;;;;;480448;246;26974;-67
2022/12/09 02:33:45;;;;;;;11.30;7.15;;;-1.20;99.90;;;;;;480005;247;27476;-65
2022/12/09 02:35:46;;;;;;;10.63;7.00;;;-1.10;99.90;;;;;;480072;247;27259;-65
2022/12/09 02:37:48;;;;;;;11.77;7.45;;;-1.10;99.90;;;;;;480359;247;27320;-66
2022/12/09 02:39:49;;;;;;;9.75;6.70;;;-1.10;99.90;;;;;;480584;247;27297;-64
2022/12/09 02:41:50;;;;;;;10.73;6.93;;;-1.10;99.90;;;;;;480588;246;27462;-66
2022/12/09 02:43:52;;;;;;;9.80;6.47;;;-1.10;99.90;;;;;;480563;247;28256;-65
2022/12/09 02:45:53;;;;;;;10.80;6.82;;;-1.10;99.90;;;;;;480531;246;27757;-64
2022/12/09 02:47:54;;;;;;;9.73;6.78;;;-1.10;99.90;;;;;;480542;242;28814;-68
2022/12/09 02:49:55;;;;;;;11.48;6.00;;;-1.10;99.90;;;;;;480571;246;27252;-64
2022/12/09 02:51:57;;;;;;;8.82;6.22;;;-1.10;99.90;;;;;;480573;246;27435;-65
2022/12/09 02:53:58;;;;;;;10.00;6.70;;;-1.10;99.90;;;;;;480549;246;27419;-64
2022/12/09 02:55:59;;;;;;;12.27;7.03;;;-1.10;99.90;;;;;;480414;243;27278;-65
2022/12/09 02:58:00;;;;;;;10.40;6.70;;;-1.10;99.90;;;;;;480382;247;27205;-67
2022/12/09 03:00:02;;;;;;;9.25;5.68;;;-1.10;99.90;;;;;;480146;246;27286;-64
2022/12/09 03:02:03;;;;;;;8.13;5.65;;;-1.10;99.90;;;;;;480108;247;27872;-64
2022/12/09 03:04:04;;;;;;;7.07;5.12;;;-1.00;99.90;;;;;;480518;246;29812;-64
2022/12/09 03:06:05;;;;;;;8.98;5.65;;;-1.00;99.90;;;;;;480594;246;27395;-64
2022/12/09 03:08:07;;;;;;;10.18;5.95;;;-1.00;99.90;;;;;;480585;246;27310;-66
2022/12/09 03:10:08;;;;;;;10.25;6.95;;;-1.10;99.90;;;;;;480581;246;27404;-66
2022/12/09 03:12:09;;;;;;;9.77;6.60;;;-1.00;99.90;;;;;;480580;247;27328;-64
2022/12/09 03:14:10;;;;;;;9.35;6.40;;;-1.00;99.90;;;;;;480577;246;27537;-65
2022/12/09 03:16:12;;;;;;;12.50;6.85;;;-1.00;99.90;;;;;;480566;246;27313;-66
2022/12/09 03:18:13;;;;;;;8.43;6.28;;;-1.00;99.90;;;;;;480580;246;27392;-66
2022/12/09 03:20:14;;;;;;;9.60;5.90;;;-1.00;99.90;;;;;;480550;246;27837;-64
2022/12/09 03:22:15;;;;;;;9.55;5.75;;;-1.00;99.90;;;;;;480566;246;28988;-65
2022/12/09 03:24:17;;;;;;;8.25;5.70;;;-1.00;99.90;;;;;;480564;246;27542;-68
2022/12/09 03:26:18;;;;;;;10.57;5.78;;;-1.00;99.90;;;;;;480349;243;27490;-66
2022/12/09 03:28:19;;;;;;;10.40;6.50;;;-1.10;99.90;;;;;;480309;246;27523;-65
2022/12/09 03:30:20;;;;;;;8.63;5.90;;;-1.10;99.90;;;;;;480113;246;27415;-65
2022/12/09 03:32:22;;;;;;;9.38;6.50;;;-1.10;99.90;;;;;;480139;247;27362;-65
2022/12/09 03:34:23;;;;;;;8.50;5.68;;;-1.10;99.90;;;;;;480129;247;27114;-68
2022/12/09 03:36:24;;;;;;;8.88;5.53;;;-1.00;99.90;;;;;;480350;243;27277;-64
2022/12/09 03:38:25;;;;;;;9.18;6.12;;;-1.00;99.90;;;;;;480204;247;27980;-65
2022/12/09 03:40:27;;;;;;;11.10;6.37;;;-1.10;99.90;;;;;;480173;247;27924;-64
2022/12/09 03:42:28;;;;;;;9.27;5.53;;;-1.20;99.90;;;;;;480579;246;27998;-65
2022/12/09 03:44:29;;;;;;;8.07;5.65;;;-1.10;99.90;;;;;;480570;246;27330;-67
2022/12/09 03:46:30;;;;;;;9.05;5.60;;;-1.10;99.90;;;;;;480547;246;27509;-64
2022/12/09 03:48:32;;;;;;;7.60;6.00;;;-1.10;99.90;;;;;;480560;246;27206;-65
2022/12/09 03:50:33;;;;;;;8.70;5.40;;;-1.20;99.90;;;;;;480520;246;27299;-64
2022/12/09 03:52:34;;;;;;;8.23;6.15;;;-1.30;99.90;;;;;;480317;246;27539;-65
2022/12/09 03:54:35;;;;;;;8.20;5.57;;;-1.20;99.90;;;;;;480155;247;27308;-68
2022/12/09 03:56:37;;;;;;;9.90;6.00;;;-1.20;99.90;;;;;;480353;243;27498;-65
2022/12/09 03:58:38;;;;;;;9.10;6.03;;;-1.10;99.90;;;;;;480567;247;27960;-65
2022/12/09 04:00:39;;;;;;;9.05;6.12;;;-1.10;99.90;;;;;;480444;246;28970;-64
2022/12/09 04:02:40;;;;;;;12.73;7.10;;;-1.10;99.90;;;;;;480114;247;28769;-65
2022/12/09 04:04:42;;;;;;;10.77;6.15;;;-1.20;99.90;;;;;;480149;247;27222;-67
2022/12/09 04:06:43;;;;;;;9.88;6.47;;;-1.20;99.90;;;;;;480118;243;27345;-64
2022/12/09 04:08:44;;;;;;;10.35;6.78;;;-1.10;99.90;;;;;;480257;247;27781;-65
2022/12/09 04:10:46;;;;;;;8.77;6.22;;;-1.10;99.90;;;;;;480154;248;27961;-64
2022/12/09 04:12:47;;;;;;;13.15;6.97;;;-1.10;99.90;;;;;;480122;247;28951;-64
2022/12/09 04:14:48;;;;;;;10.88;6.93;;;-1.10;99.90;;;;;;480161;247;27197;-67
2022/12/09 04:16:49;;;;;;;12.23;8.20;;;-1.00;99.90;;;;;;480115;247;27258;-65
2022/12/09 04:18:51;;;;;;;16.73;8.63;;;-1.00;99.90;;;;;;480137;247;27334;-66
2022/12/09 04:20:52;;;;;;;15.95;8.95;;;-1.00;99.90;;;;;;480166;247;27489;-65
2022/12/09 04:22:53;;;;;;;14.18;8.60;;;-0.90;99.90;;;;;;480060;247;27334;-65
2022/12/09 04:24:54;;;;;;;14.87;8.98;;;-0.80;99.90;;;;;;480162;247;27928;-67
2022/12/09 04:26:56;;;;;;;13.80;7.80;;;-0.80;99.90;;;;;;481779;243;27950;-64
2022/12/09 04:28:57;;;;;;;16.15;8.57;;;-0.90;99.90;;;;;;480217;247;27430;-64
2022/12/09 04:30:58;;;;;;;12.80;7.95;;;-0.90;99.90;;;;;;480560;247;27365;-64
2022/12/09 04:32:59;;;;;;;12.40;7.47;;;-0.90;99.90;;;;;;480117;246;27430;-65
2022/12/09 04:35:01;;;;;;;11.88;7.22;;;-0.90;99.90;;;;;;480152;247;27447;-67
2022/12/09 04:37:02;;;;;;;13.73;7.70;;;-1.00;99.90;;;;;;480136;247;27547;-64
2022/12/09 04:39:03;;;;;;;10.00;7.12;;;-1.00;99.90;;;;;;480526;246;27932;-65
2022/12/09 04:41:05;;;;;;;11.05;6.75;;;-1.10;99.90;;;;;;480565;246;28623;-65
2022/12/09 04:43:06;;;;;;;14.75;7.85;;;-1.00;99.90;;;;;;480496;247;29023;-64
2022/12/09 04:45:07;;;;;;;13.45;7.45;;;-1.10;99.90;;;;;;480507;246;27418;-65
2022/12/09 04:47:08;;;;;;;15.00;6.95;;;-1.10;99.90;;;;;;480416;246;26970;-64
2022/12/09 04:49:10;;;;;;;12.48;7.07;;;-1.10;99.90;;;;;;480395;247;27626;-64
2022/12/09 04:51:11;;;;;;;12.02;7.87;;;-1.00;99.90;;;;;;480408;246;27197;-65
2022/12/09 04:53:12;;;;;;;13.15;7.80;;;-1.00;99.90;;;;;;480454;246;27336;-66
2022/12/09 04:55:14;;;;;;;14.75;8.07;;;-0.90;99.90;;;;;;480522;246;27922;-65
2022/12/09 04:57:15;;;;;;;13.55;8.65;;;-0.80;99.90;;;;;;480325;243;29114;-65
2022/12/09 04:59:16;;;;;;;12.27;7.97;;;-0.90;99.90;;;;;;480329;247;27520;-65
2022/12/09 05:01:17;;;;;;;11.00;7.37;;;-0.90;99.90;;;;;;480554;246;27438;-64
2022/12/09 05:03:18;;;;;;;12.88;7.40;;;-0.90;99.90;;;;;;480562;246;27400;-64
2022/12/09 05:05:20;;;;;;;13.85;7.82;;;-0.90;99.90;;;;;;472387;251;27630;-65
2022/12/09 05:07:22;;;;;;;14.77;8.48;;;-1.00;99.90;;;;;;472426;251;27540;-64
2022/12/09 05:09:22;;;;;;;11.00;8.15;;;-1.00;99.90;;;;;;477608;248;27431;-64
2022/12/09 05:11:23;;;;;;;12.77;9.35;;;-1.00;99.90;;;;;;480133;247;27992;-68
2022/12/09 05:13:28;;;;;;;14.85;8.55;;;-0.90;99.90;;;;;;480115;247;29001;-64
2022/12/09 05:15:29;;;;;;;15.35;10.02;;;-1.00;99.90;;;;;;480093;247;27720;-65
2022/12/09 05:17:30;;;;;;;16.30;9.75;;;-1.00;99.90;;;;;;480103;247;27990;-66
2022/12/09 05:19:31;;;;;;;18.58;9.23;;;-1.00;99.90;;;;;;480130;247;27484;-66
2022/12/09 05:21:33;;;;;;;13.57;9.10;;;-0.90;99.90;;;;;;480124;247;27436;-64
2022/12/09 05:23:34;;;;;;;18.80;10.15;;;-0.90;99.90;;;;;;480129;247;27523;-67
2022/12/09 05:25:35;;;;;;;21.10;9.20;;;-0.90;99.90;;;;;;480096;247;27419;-64
2022/12/09 05:27:36;;;;;;;17.05;10.05;;;-0.90;99.90;;;;;;480114;247;27449;-65
2022/12/09 05:29:38;;;;;;;11.50;8.30;;;-0.90;99.90;;;;;;480139;247;28783;-67
2022/12/09 05:31:39;;;;;;;18.05;9.73;;;-0.90;99.90;;;;;;480064;243;29138;-64
2022/12/09 05:33:40;;;;;;;15.40;9.02;;;-0.90;99.90;;;;;;480139;247;27443;-65
2022/12/09 05:35:41;;;;;;;15.43;9.73;;;-0.90;99.90;;;;;;480107;247;27386;-64
2022/12/09 05:37:43;;;;;;;15.38;9.25;;;-1.00;99.90;;;;;;480118;247;27519;-64
2022/12/09 05:39:44;;;;;;;14.27;8.25;;;-1.00;99.90;;;;;;480110;247;27338;-67
2022/12/09 05:41:46;;;;;;;12.90;7.65;;;-1.00;99.90;;;;;;480093;247;27396;-64
2022/12/09 05:43:47;;;;;;;17.30;9.00;;;-1.00;99.90;;;;;;480305;243;27490;-65
2022/12/09 05:45:48;;;;;;;13.55;8.68;;;-1.00;99.90;;;;;;480193;246;27149;-64
2022/12/09 05:47:49;;;;;;;11.82;8.18;;;-1.10;99.90;;;;;;480447;247;27413;-64
2022/12/09 05:49:50;;;;;;;12.18;8.70;;;-1.10;99.90;;;;;;480021;247;27446;-68
2022/12/09 05:51:52;;;;;;;12.95;8.75;;;-1.10;99.90;;;;;;480563;246;27864;-65
2022/12/09 05:53:53;;;;;;;14.02;8.73;;;-1.10;99.90;;;;;;480194;243;27774;-66
2022/12/09 05:55:54;;;;;;;12.77;8.52;;;-1.10;99.90;;;;;;480251;247;27341;-64
2022/12/09 05:57:55;;;;;;;14.50;8.98;;;-1.10;99.90;;;;;;480093;247;27428;-65
2022/12/09 05:59:57;;;;;;;14.20;8.75;;;-1.10;99.90;;;;;;480231;247;27304;-67
2022/12/09 06:01:58;;;;;;;14.93;10.10;;;-1.10;99.90;;;;;;480547;242;27445;-64
2022/12/09 06:03:59;;;;;;;14.15;8.88;;;-1.10;99.90;;;;;;480589;246;27517;-65
2022/12/09 06:06:00;;;;;;;16.05;10.60;;;-1.20;99.90;;;;;;480572;246;28434;-64
2022/12/09 06:08:02;;;;;;;14.85;9.10;;;-1.30;99.90;;;;;;480512;246;29043;-65
2022/12/09 06:10:03;;;;;;;16.98;10.30;;;-1.30;99.90;;;;;;480574;246;27526;-67
2022/12/09 06:12:04;;;;;;;14.52;10.25;;;-1.30;99.90;;;;;;480577;246;27181;-64
2022/12/09 06:14:05;;;;;;;15.68;8.63;;;-1.30;99.90;;;;;;480360;243;27431;-64
2022/12/09 06:16:07;;;;;;;11.73;7.82;;;-1.30;99.90;;;;;;480389;246;27289;-64
2022/12/09 06:18:08;;;;;;;14.57;8.60;;;-1.30;99.90;;;;;;480365;247;27376;-64
2022/12/09 06:20:09;;;;;;;10.60;7.53;;;-1.30;99.90;;;;;;480592;246;27772;-68
2022/12/09 06:22:11;;;;;;;12.43;8.13;;;-1.30;99.90;;;;;;480169;247;27470;-65
2022/12/09 06:24:12;;;;;;;11.68;7.70;;;-1.30;99.90;;;;;;480122;247;27294;-64
2022/12/09 06:26:13;;;;;;;12.02;8.45;;;-1.30;99.90;;;;;;480088;247;28484;-64
2022/12/09 06:28:14;;;;;;;12.30;8.40;;;-1.30;99.90;;;;;;480121;247;29176;-64
2022/12/09 06:30:16;;;;;;;16.60;10.63;;;-1.30;99.90;;;;;;480586;246;27197;-67
2022/12/09 06:32:17;;;;;;;17.60;10.68;;;-1.30;99.90;;;;;;480570;246;27271;-64
2022/12/09 06:34:18;;;;;;;18.75;11.25;;;-1.30;99.90;;;;;;480530;246;27366;-64
2022/12/09 06:36:19;;;;;;;18.58;10.10;;;-1.30;99.90;;;;;;480577;246;27117;-68
2022/12/09 06:38:21;;;;;;;16.08;10.60;;;-1.30;99.90;;;;;;480532;246;27317;-64
2022/12/09 06:40:22;;;;;;;15.43;10.60;;;-1.30;99.90;;;;;;480545;243;27750;-65
2022/12/09 06:42:23;;;;;;;17.12;9.57;;;-1.30;99.90;;;;;;480564;246;27308;-64
2022/12/09 06:44:24;;;;;;;15.65;9.23;;;-1.30;99.90;;;;;;480922;243;27086;-65
2022/12/09 06:46:26;;;;;;;15.85;10.23;;;-1.30;99.90;;;;;;480339;243;27335;-64
2022/12/09 06:48:27;;;;;;;15.55;9.80;;;-1.40;99.90;;;;;;480156;247;27175;-65
2022/12/09 06:50:28;;;;;;;13.75;8.90;;;-1.40;99.90;;;;;;480537;246;27001;-67
2022/12/09 06:52:29;;;;;;;14.52;8.48;;;-1.40;99.90;;;;;;480580;246;27193;-64
2022/12/09 06:54:31;;;;;;;14.93;9.38;;;-1.40;99.90;;;;;;480509;246;27851;-66
2022/12/09 06:56:32;;;;;;;13.85;8.52;;;-1.40;99.90;;;;;;480580;246;28011;-68
2022/12/09 06:58:33;;;;;;;11.77;7.90;;;-1.40;99.90;;;;;;480556;246;27081;-65
2022/12/09 07:00:34;;;;;;;9.88;7.50;;;-1.50;99.90;;;;;;480502;246;27290;-65
2022/12/09 07:02:36;;;;;;;11.95;8.05;;;-1.60;99.90;;;;;;480544;246;27422;-65
2022/12/09 07:04:37;;;;;;;11.52;7.90;;;-1.60;99.90;;;;;;480572;246;27274;-65
2022/12/09 07:06:38;;;;;;;15.13;8.98;;;-1.50;99.90;;;;;;480522;246;27350;-68
2022/12/09 07:08:40;;;;;;;14.50;9.25;;;-1.50;99.90;;;;;;480556;246;27290;-65
2022/12/09 07:10:44;;;;;;;15.38;10.13;;;-1.40;99.90;;;;;;480521;246;27859;-65
2022/12/09 07:12:42;;;;;;;12.75;9.15;;;-1.40;99.90;;;;;;478867;247;27503;-64
2022/12/09 07:14:43;;;;;;;14.60;9.00;;;-1.50;99.90;;;;;;472076;247;27059;-64
2022/12/09 07:16:45;;;;;;;12.40;9.05;;;-1.50;99.90;;;;;;470274;249;27212;-66
2022/12/09 07:18:46;;;;;;;15.23;9.82;;;-1.50;99.90;;;;;;473464;245;27392;-65
2022/12/09 07:20:47;;;;;;;19.33;11.32;;;-1.50;99.90;;;;;;475657;250;27398;-65
2022/12/09 07:22:48;;;;;;;13.65;10.05;;;-1.50;99.90;;;;;;475699;250;27465;-65
2022/12/09 07:24:50;;;;;;;13.98;8.90;;;-1.50;99.90;;;;;;475784;250;27782;-64
2022/12/09 07:26:51;;;;;;;18.60;10.25;;;-1.50;99.90;;;;;;475483;250;28900;-66
2022/12/09 07:28:52;;;;;;;13.05;9.90;;;-1.50;99.90;;;;;;475752;250;27326;-67
2022/12/09 07:30:53;;;;;;;14.70;9.35;;;-1.50;99.90;;;;;;475812;250;27682;-65
2022/12/09 07:32:55;;;;;;;15.10;10.65;;;-1.50;99.90;;;;;;475774;250;27593;-68
2022/12/09 07:34:56;;;;;;;15.65;10.85;;;-1.50;99.90;;;;;;474984;243;27665;-62
2022/12/09 07:36:57;;;;;;;18.05;10.38;;;-1.40;99.90;;;;;;473986;249;27312;-63
2022/12/09 07:38:59;;;;;;;15.65;10.35;;;-1.20;99.90;;;;;;454934;259;27707;-64
2022/12/09 07:41:00;;;;;;;14.87;10.23;;;-1.20;99.90;;;;;;460775;255;27180;-65
2022/12/09 07:43:01;;;;;;;14.82;10.18;;;-1.10;99.90;;;;;;460702;253;27305;-68
2022/12/09 07:45:02;;;;;;;15.27;9.70;;;-1.20;99.90;;;;;;462227;257;27181;-65
2022/12/09 07:47:04;;;;;;;15.35;10.43;;;-1.20;99.90;;;;;;460904;253;28113;-65
2022/12/09 07:49:05;;;;;;;17.30;12.25;;;-1.20;99.90;;;;;;459677;256;29034;-65
2022/12/09 07:51:06;;;;;;;20.27;12.52;;;-1.10;99.90;;;;;;459640;252;27448;-65
2022/12/09 07:53:07;;;;;;;20.00;11.90;;;-1.10;99.90;;;;;;459653;256;27465;-66
2022/12/09 07:55:09;;;;;;;19.35;12.18;;;-1.20;99.90;;;;;;459549;256;27220;-65
2022/12/09 07:57:10;;;;;;;18.73;12.32;;;-1.10;99.90;;;;;;463266;255;27791;-65
2022/12/09 07:59:11;;;;;;;19.25;12.73;;;-1.10;99.90;;;;;;476849;247;28277;-68
2022/12/09 08:01:13;;;;;;;17.05;11.80;;;-1.10;99.90;;;;;;464554;254;28021;-64
2022/12/09 08:03:14;;;;;;;23.83;13.10;;;-1.10;99.90;;;;;;478494;247;27440;-65
2022/12/09 08:05:15;;;;;;;18.98;12.32;;;-1.10;99.90;;;;;;464768;254;27590;-64
2022/12/09 08:07:17;;;;;;;17.70;10.60;;;-1.00;99.90;;;;;;478337;247;27927;-64
2022/12/09 08:09:18;;;;;;;18.75;11.73;;;-1.00;99.90;;;;;;464645;256;27567;-67
2022/12/09 08:11:19;;;;;;;16.65;11.12;;;-1.00;99.90;;;;;;478762;247;27387;-65
2022/12/09 08:13:20;;;;;;;17.02;10.20;;;-1.00;99.90;;;;;;464757;252;27547;-65
2022/12/09 08:15:22;;;;;;;17.50;10.70;;;-0.90;99.90;;;;;;478711;247;27526;-68
2022/12/09 08:17:23;;;;;;;15.20;9.70;;;-0.90;99.90;;;;;;464718;254;27468;-65
2022/12/09 08:19:24;;;;;;;16.42;9.75;;;-0.90;99.90;;;;;;478674;247;27923;-65
2022/12/09 08:21:26;;;;;;;13.48;9.52;;;-0.90;99.90;;;;;;464706;254;29077;-64
2022/12/09 08:23:27;;;;;;;16.83;9.63;;;-0.90;99.90;;;;;;478677;247;27862;-64
2022/12/09 08:25:28;;;;;;;12.07;8.52;;;-0.90;99.90;;;;;;464767;254;27594;-67
2022/12/09 08:27:29;;;;;;;14.80;10.18;;;-0.80;99.90;;;;;;478734;247;27400;-64
2022/12/09 08:29:31;;;;;;;15.93;11.60;;;-0.80;99.90;;;;;;470307;238;27974;-67
2022/12/09 08:31:32;;;;;;;19.77;12.25;;;-0.80;99.90;;;;;;472973;251;28837;-65
2022/12/09 08:33:33;;;;;;;16.60;11.82;;;-0.80;99.90;;;;;;473044;251;27512;-65
2022/12/09 08:35:34;;;;;;;17.95;11.68;;;-0.80;99.90;;;;;;472772;251;27457;-67
2022/12/09 08:37:36;;;;;;;14.20;10.77;;;-0.80;99.90;;;;;;473101;251;27546;-64
2022/12/09 08:39:37;;;;;;;16.90;11.65;;;-0.70;99.90;;;;;;473035;251;27543;-65
2022/12/09 08:41:38;;;;;;;18.05;11.12;;;-0.80;99.90;;;;;;473053;251;28457;-65
2022/12/09 08:43:39;;;;;;;16.35;10.98;;;-0.80;99.90;;;;;;473139;251;27980;-66
2022/12/09 08:45:41;;;;;;;14.20;10.48;;;-0.80;99.90;;;;;;473086;251;27544;-65
2022/12/09 08:47:42;;;;;;;13.70;10.70;;;-0.80;99.90;;;;;;473070;251;27512;-65
2022/12/09 08:49:43;;;;;;;14.25;10.88;;;-0.80;99.90;;;;;;475355;248;27411;-64
2022/12/09 08:51:44;;;;;;;18.55;12.32;;;-0.80;99.90;;;;;;469177;253;27489;-68
2022/12/09 08:53:46;;;;;;;16.35;10.95;;;-0.80;99.90;;;;;;466391;253;27926;-65
2022/12/09 08:55:47;;;;;;;16.98;12.13;;;-0.80;99.90;;;;;;461700;257;28057;-66
2022/12/09 08:57:48;;;;;;;20.70;13.07;;;-0.70;99.90;;;;;;463292;255;27493;-65
2022/12/09 08:59:50;;;;;;;23.27;14.65;;;-0.60;99.90;;;;;;461645;257;27569;-65
2022/12/09 09:01:51;;;;;;;24.90;15.07;;;-0.40;99.90;;;;;;461729;257;27562;-69
2022/12/09 09:03:52;;;;;;;25.73;15.93;;;-0.40;99.90;;;;;;461720;257;27552;-65
2022/12/09 09:05:53;;;;;;;25.58;15.23;;;-0.30;99.90;;;;;;461654;257;27608;-66
2022/12/09 09:07:55;;;;;;;26.33;16.20;;;-0.30;99.90;;;;;;461733;257;27994;-65
2022/12/09 09:09:56;;;;;;;28.73;16.08;;;-0.20;99.90;;;;;;475282;240;28106;-65
2022/12/09 09:11:57;;;;;;;27.52;16.10;;;-0.20;99.90;;;;;;477822;248;27977;-67
2022/12/09 09:13:58;;;;;;;26.70;16.33;;;-0.20;99.90;;;;;;477508;248;27496;-65
2022/12/09 09:16:00;;;;;;;30.23;16.92;;;-0.20;99.90;;;;;;488329;243;28007;-67
2022/12/09 09:18:01;;;;;;;31.42;17.05;;;-0.20;99.90;;;;;;468162;253;27583;-70
2022/12/09 09:20:02;;;;;;;25.90;15.57;;;-0.10;99.90;;;;;;464583;254;28104;-65
2022/12/09 09:22:04;;;;;;;29.85;16.05;;;-0.10;99.90;;;;;;478552;246;27400;-66
2022/12/09 09:24:05;;;;;;;30.10;17.15;;;-0.10;99.90;;;;;;478334;248;27628;-64
2022/12/09 09:26:06;;;;;;;24.85;15.45;;;-0.10;99.90;;;;;;493830;241;27492;-64
2022/12/09 09:28:07;;;;;;;29.95;16.80;;;-0.10;99.90;;;;;;493843;240;27509;-66
2022/12/09 09:30:09;;;;;;;30.58;17.20;;;0.00;99.90;;;;;;493793;240;27521;-65
2022/12/09 09:32:10;;;;;;;34.83;17.45;;;0.00;99.90;;;;;;473295;251;27999;-66
2022/12/09 09:34:11;;;;;;;32.65;17.60;;;0.00;99.90;;;;;;473205;251;29147;-65
2022/12/09 09:36:12;;;;;;;32.97;17.50;;;0.00;99.90;;;;;;473166;251;27547;-65
2022/12/09 09:38:14;;;;;;;33.83;17.30;;;0.00;99.90;;;;;;473272;251;27540;-68
2022/12/09 09:40:15;;;;;;;27.92;15.65;;;0.10;99.90;;;;;;473273;251;27533;-65
2022/12/09 09:42:16;;;;;;;30.23;17.75;;;0.10;99.90;;;;;;473208;251;28051;-65
2022/12/09 09:44:17;;;;;;;28.80;17.42;;;0.20;99.90;;;;;;473233;251;29915;-65
2022/12/09 09:46:19;;;;;;;33.35;18.62;;;0.10;99.90;;;;;;475140;247;27507;-65
2022/12/09 09:48:20;;;;;;;28.42;17.48;;;0.20;99.90;;;;;;477802;249;27534;-68
2022/12/09 09:50:21;;;;;;;27.35;16.83;;;0.20;99.90;;;;;;477867;248;27424;-65
2022/12/09 09:52:22;;;;;;;28.77;16.62;;;0.20;99.90;;;;;;477886;248;27519;-67
2022/12/09 09:54:24;;;;;;;25.60;16.15;;;0.30;99.90;;;;;;477783;248;27431;-67
2022/12/09 09:56:25;;;;;;;34.90;18.02;;;0.30;99.90;;;;;;477860;248;27397;-65
2022/12/09 09:58:26;;;;;;;29.55;17.08;;;0.30;99.90;;;;;;477740;249;27915;-68
2022/12/09 10:00:28;;;;;;;27.52;16.15;;;0.30;99.90;;;;;;477794;248;29228;-67
2022/12/09 10:02:29;;;;;;;31.17;16.40;;;0.40;99.90;;;;;;477867;248;27431;-66
2022/12/09 10:04:30;;;;;;;27.95;16.95;;;0.40;99.90;;;;;;477587;248;27455;-67
2022/12/09 10:06:31;;;;;;;32.20;16.85;;;0.40;99.90;;;;;;477447;248;27512;-65
2022/12/09 10:08:33;;;;;;;27.02;15.60;;;0.40;99.90;;;;;;477827;248;27466;-66
2022/12/09 10:10:34;;;;;;;28.77;15.90;;;0.40;99.90;;;;;;477858;248;27523;-64
2022/12/09 10:12:35;;;;;;;26.30;15.93;;;0.50;99.90;;;;;;477850;248;27983;-65
2022/12/09 10:14:36;;;;;;;29.87;16.48;;;0.50;99.90;;;;;;477894;248;27918;-69
2022/12/09 10:16:38;;;;;;;26.83;16.17;;;0.50;99.90;;;;;;477880;248;27384;-65
2022/12/09 10:18:39;;;;;;;27.48;16.95;;;0.60;99.90;;;;;;477863;248;27503;-66
2022/12/09 10:20:40;;;;;;;28.70;16.70;;;0.50;99.90;;;;;;477878;249;27423;-65
2022/12/09 10:22:41;;;;;;;27.50;16.33;;;0.60;99.90;;;;;;477833;248;27402;-66